HADR

Aba Tenna Dejazmach Yilma International Airport

Dire Dawa, Ethiopia
TAF HADR 162130Z 1700/1806 34010KT C A V O K
Issued Valid From Valid To
Jan-16 @ 21:30 UTC
(8 hours ago)
Jan-17 @ 00:00 UTC
(5 hours ago)
Jan-18 @ 06:00 UTC
(-1 days ago)
Jan-17 @ 00:00 to Jan-18 @ 06:00
TAF HADR 162130Z 1700/1806 34010KT C A V O K
Wind Visibility Clouds Conditions
340° at 10 knots 10,000+ meters
  • No significant clouds
TAF HADR 162130Z 1700/1806 34010KT C A V O K
Issued Jan-16 @ 21:30 UTC
(8 hours ago)
Valid From Jan-17 @ 00:00 UTC
(5 hours ago)
Valid To Jan-18 @ 06:00 UTC
(-1 days ago)
Jan-17 @ 00:00 - Jan-18 @ 06:00
Wind Visibility
340° at 10 knots 10,000+ meters
Clouds
  • No significant clouds
Conditions